createdAt,value
2022-07-30T00:00:25.141Z,43.59
2022-07-30T00:02:56.923Z,43.49
2022-07-30T00:05:28.336Z,43.62
2022-07-30T00:08:00.066Z,43.61
2022-07-30T00:10:31.500Z,43.70
2022-07-30T00:13:02.764Z,43.67
2022-07-30T00:15:34.381Z,43.76
2022-07-30T00:18:05.935Z,43.71
2022-07-30T00:20:40.344Z,43.88
2022-07-30T00:23:14.935Z,44.04
2022-07-30T00:25:46.170Z,44.16
2022-07-30T00:28:17.422Z,44.22
2022-07-30T00:30:48.779Z,44.39
2022-07-30T00:33:26.829Z,44.44
2022-07-30T00:35:58.225Z,44.40
2022-07-30T00:38:29.589Z,44.51
2022-07-30T00:41:00.973Z,44.57
2022-07-30T00:43:32.319Z,44.51
2022-07-30T00:46:03.641Z,44.56
2022-07-30T00:48:36.596Z,44.69
2022-07-30T00:51:07.985Z,44.77
2022-07-30T00:53:39.567Z,44.81
2022-07-30T00:56:11.240Z,44.95
2022-07-30T00:58:44.066Z,44.84
2022-07-30T01:01:15.351Z,44.99
2022-07-30T01:03:46.657Z,44.99
2022-07-30T01:06:17.993Z,45.11
2022-07-30T01:08:49.198Z,45.14
2022-07-30T01:11:20.702Z,45.23
2022-07-30T01:13:52.487Z,45.29
2022-07-30T01:16:24.449Z,45.38
2022-07-30T01:19:15.037Z,45.53
2022-07-30T01:21:51.392Z,45.63
2022-07-30T01:24:32.384Z,45.77
2022-07-30T01:27:04.275Z,45.69
2022-07-30T01:29:39.901Z,45.88
2022-07-30T01:32:12.428Z,45.97
2022-07-30T01:34:46.774Z,45.99
2022-07-30T01:37:20.492Z,46.09
2022-07-30T01:39:53.305Z,46.13
2022-07-30T01:42:28.183Z,46.29
2022-07-30T01:45:00.962Z,46.29
2022-07-30T01:47:34.592Z,46.47
2022-07-30T01:50:13.791Z,46.39
2022-07-30T01:52:49.074Z,46.41
2022-07-30T01:55:22.960Z,46.53
2022-07-30T01:57:55.378Z,46.60
2022-07-30T02:00:28.057Z,46.67
2022-07-30T02:02:59.689Z,46.76
2022-07-30T02:05:34.516Z,46.81
2022-07-30T02:08:14.279Z,46.88
2022-07-30T02:10:50.606Z,46.96
2022-07-30T02:13:28.016Z,47.03
2022-07-30T02:16:05.854Z,47.10
2022-07-30T02:18:45.387Z,47.22
2022-07-30T02:21:22.101Z,47.22
2022-07-30T02:23:56.727Z,47.32
2022-07-30T02:26:30.968Z,47.49
2022-07-30T02:29:07.289Z,47.48
2022-07-30T02:31:42.809Z,47.50
2022-07-30T02:34:16.993Z,47.65
2022-07-30T02:36:49.126Z,47.74
2022-07-30T02:39:22.559Z,47.94
2022-07-30T02:41:57.914Z,48.07
2022-07-30T02:44:32.467Z,48.27
2022-07-30T02:47:04.976Z,48.12
2022-07-30T02:49:56.355Z,48.29
2022-07-30T02:52:30.179Z,48.35
2022-07-30T02:55:03.781Z,48.34
2022-07-30T02:57:36.249Z,48.42
2022-07-30T03:00:17.024Z,48.51
2022-07-30T03:02:49.099Z,48.53
2022-07-30T03:05:21.469Z,48.70
2022-07-30T03:07:53.595Z,48.70
2022-07-30T03:10:26.322Z,48.77
2022-07-30T03:12:59.875Z,48.73
2022-07-30T03:15:34.804Z,48.83
2022-07-30T03:18:14.828Z,48.97
2022-07-30T03:20:46.153Z,49.01
2022-07-30T03:23:22.676Z,49.02
2022-07-30T03:25:58.338Z,49.03
2022-07-30T03:28:32.762Z,49.05
2022-07-30T03:31:05.498Z,48.95
2022-07-30T03:33:39.226Z,48.98
2022-07-30T03:36:13.673Z,49.03
2022-07-30T03:38:45.659Z,49.07
2022-07-30T03:41:18.743Z,49.07
2022-07-30T03:43:51.256Z,49.10
2022-07-30T03:46:24.055Z,49.13
2022-07-30T03:48:56.828Z,49.14
2022-07-30T03:51:32.921Z,49.13
2022-07-30T03:54:13.360Z,49.20
2022-07-30T03:56:45.703Z,49.35
2022-07-30T03:59:25.406Z,49.41
2022-07-30T04:02:05.973Z,49.44
2022-07-30T04:04:58.806Z,49.51
2022-07-30T04:07:30.192Z,49.51
2022-07-30T04:10:01.463Z,49.57
2022-07-30T04:12:51.463Z,49.56
2022-07-30T04:16:37.361Z,49.69
2022-07-30T04:18:17.136Z,49.79
2022-07-30T04:20:50.866Z,49.90
2022-07-30T04:23:23.134Z,50.16
2022-07-30T04:25:55.315Z,49.99
2022-07-30T04:28:28.239Z,50.01
2022-07-30T04:30:59.986Z,50.06
2022-07-30T04:33:31.561Z,50.18
2022-07-30T04:36:18.964Z,50.25
2022-07-30T04:38:50.794Z,50.38
2022-07-30T04:41:22.094Z,50.30
2022-07-30T04:44:13.567Z,50.28
2022-07-30T04:46:52.098Z,50.38
2022-07-30T04:49:25.384Z,50.43
2022-07-30T04:51:58.318Z,50.51
2022-07-30T04:54:32.586Z,50.48
2022-07-30T04:57:06.144Z,50.45
2022-07-30T04:59:37.759Z,50.46
2022-07-30T05:02:10.490Z,50.47
2022-07-30T05:04:44.138Z,50.59
2022-07-30T05:07:18.148Z,50.70
2022-07-30T05:09:53.660Z,50.66
2022-07-30T05:12:37.661Z,50.78
2022-07-30T05:15:11.199Z,50.90
2022-07-30T05:17:42.769Z,50.88
2022-07-30T05:20:14.999Z,50.79
2022-07-30T05:23:07.596Z,50.85
2022-07-30T05:25:39.272Z,50.87
2022-07-30T05:28:22.428Z,50.91
2022-07-30T05:30:54.238Z,50.80
2022-07-30T05:33:40.828Z,50.88
2022-07-30T05:36:15.319Z,50.99
2022-07-30T05:38:46.623Z,51.09
2022-07-30T05:41:31.734Z,51.04
2022-07-30T05:44:04.541Z,51.12
2022-07-30T05:46:36.014Z,51.20
2022-07-30T05:49:07.584Z,51.21
2022-07-30T05:51:39.248Z,51.22
2022-07-30T05:54:10.793Z,51.49
2022-07-30T05:57:00.999Z,51.60
2022-07-30T05:59:50.555Z,51.58
2022-07-30T06:02:31.988Z,51.63
2022-07-30T06:05:15.716Z,51.75
2022-07-30T06:07:47.579Z,51.69
2022-07-30T06:10:19.294Z,51.63
2022-07-30T06:12:51.738Z,51.62
2022-07-30T06:15:26.081Z,51.68
2022-07-30T06:18:01.967Z,51.69
2022-07-30T06:21:03.120Z,51.81
2022-07-30T06:23:44.318Z,51.91
2022-07-30T06:26:34.182Z,51.95
2022-07-30T06:29:06.446Z,52.00
2022-07-30T06:31:40.233Z,52.21
2022-07-30T06:34:12.217Z,52.29
2022-07-30T06:36:46.229Z,52.62
2022-07-30T06:39:58.117Z,52.47
2022-07-30T06:42:23.773Z,52.07
2022-07-30T06:45:14.706Z,52.02
2022-07-30T06:48:09.463Z,52.00
2022-07-30T06:50:41.835Z,52.10
2022-07-30T06:53:13.239Z,51.91
2022-07-30T06:56:07.906Z,52.00
2022-07-30T06:58:49.500Z,52.01
2022-07-30T07:01:30.056Z,52.04
2022-07-30T07:04:02.219Z,51.90
2022-07-30T07:06:34.214Z,51.81
2022-07-30T07:09:07.103Z,51.70
2022-07-30T07:11:53.890Z,51.71
2022-07-30T07:14:24.006Z,51.71
2022-07-30T07:16:56.190Z,51.60
2022-07-30T07:20:00.315Z,51.47
2022-07-30T07:22:37.344Z,51.62
2022-07-30T07:25:11.541Z,51.72
2022-07-30T07:27:43.112Z,51.69
2022-07-30T07:30:17.308Z,51.50
2022-07-30T07:32:48.882Z,51.57
2022-07-30T07:35:20.478Z,51.63
2022-07-30T07:37:54.827Z,51.30
2022-07-30T07:40:29.646Z,51.29
2022-07-30T07:43:02.330Z,51.45
2022-07-30T07:45:34.878Z,51.55
2022-07-30T07:48:10.938Z,51.43
2022-07-30T07:50:59.657Z,51.59
2022-07-30T07:53:33.012Z,51.33
2022-07-30T07:56:08.578Z,51.36
2022-07-30T07:58:41.496Z,51.25
2022-07-30T08:01:14.808Z,51.12
2022-07-30T08:04:10.400Z,51.12
2022-07-30T08:07:17.736Z,51.37
2022-07-30T08:09:55.848Z,51.26
2022-07-30T08:12:46.384Z,51.09
2022-07-30T08:15:53.337Z,50.92
2022-07-30T08:18:43.361Z,50.53
2022-07-30T08:21:23.713Z,50.40
2022-07-30T08:23:55.431Z,50.39
2022-07-30T08:26:27.678Z,50.62
2022-07-30T08:28:59.666Z,50.43
2022-07-30T08:31:32.341Z,50.08
2022-07-30T08:34:04.733Z,50.01
2022-07-30T08:36:36.577Z,50.34
2022-07-30T08:39:08.906Z,50.16
2022-07-30T08:41:42.365Z,49.96
2022-07-30T08:44:17.476Z,49.65
2022-07-30T08:46:50.192Z,49.40
2022-07-30T08:49:32.889Z,49.23
2022-07-30T08:52:09.063Z,49.15
2022-07-30T08:54:53.422Z,49.14
2022-07-30T08:57:26.152Z,49.15
2022-07-30T09:00:01.302Z,49.25
2022-07-30T09:02:35.668Z,49.09
2022-07-30T09:05:11.978Z,49.10
2022-07-30T09:07:44.269Z,49.08
2022-07-30T09:10:24.708Z,49.23
2022-07-30T09:12:56.730Z,49.33
2022-07-30T09:15:28.547Z,49.25
2022-07-30T09:18:03.225Z,49.33
2022-07-30T09:20:38.491Z,49.35
2022-07-30T09:23:12.912Z,49.25
2022-07-30T09:26:03.577Z,49.10
2022-07-30T09:28:54.494Z,48.80
2022-07-30T09:32:01.612Z,48.33
2022-07-30T09:34:56.829Z,48.21
2022-07-30T09:38:06.198Z,47.92
2022-07-30T09:40:57.685Z,47.65
2022-07-30T09:43:44.951Z,47.14
2022-07-30T09:46:23.998Z,46.88
2022-07-30T09:49:14.681Z,46.85
2022-07-30T09:54:53.141Z,46.60
2022-07-30T09:57:28.740Z,46.75
2022-07-30T10:00:24.375Z,46.67
2022-07-30T10:03:33.555Z,46.79
2022-07-30T10:06:41.924Z,47.11
2022-07-30T10:09:30.284Z,47.28
2022-07-30T10:12:04.252Z,47.55
2022-07-30T10:14:42.590Z,47.73
2022-07-30T10:17:18.424Z,47.63
2022-07-30T10:20:12.664Z,47.48
2022-07-30T10:23:08.306Z,47.31
2022-07-30T10:25:49.560Z,47.45
2022-07-30T10:28:46.133Z,47.29
2022-07-30T10:31:49.413Z,47.27
2022-07-30T10:34:10.789Z,47.13
2022-07-30T10:36:48.055Z,47.57
2022-07-30T10:39:26.939Z,47.95
2022-07-30T10:42:09.904Z,48.13
2022-07-30T10:45:17.589Z,48.21
2022-07-30T10:47:51.538Z,48.24
2022-07-30T10:50:26.964Z,48.38
2022-07-30T10:53:01.669Z,48.59
2022-07-30T10:55:38.832Z,48.65
2022-07-30T10:58:22.848Z,48.80
2022-07-30T11:01:03.838Z,48.94
2022-07-30T11:03:41.060Z,48.90
2022-07-30T11:06:31.035Z,48.94
2022-07-30T11:09:03.615Z,49.11
2022-07-30T11:12:02.172Z,49.21
2022-07-30T11:15:06.538Z,49.41
2022-07-30T11:18:12.492Z,49.66
2022-07-30T11:20:48.601Z,49.99
2022-07-30T11:23:40.017Z,50.25
2022-07-30T11:26:14.235Z,50.30
2022-07-30T11:28:49.806Z,50.55
2022-07-30T11:31:56.914Z,50.66
2022-07-30T11:35:34.387Z,50.75
2022-07-30T11:38:10.360Z,51.22
2022-07-30T11:41:13.275Z,51.62
2022-07-30T11:43:45.184Z,51.75
2022-07-30T11:46:29.014Z,51.99
2022-07-30T11:49:05.780Z,52.36
2022-07-30T11:51:44.967Z,52.58
2022-07-30T11:54:16.635Z,52.84
2022-07-30T11:57:03.696Z,52.99
2022-07-30T12:13:45.074Z,53.34
2022-07-30T12:16:51.301Z,53.52
2022-07-30T12:19:20.234Z,53.75
2022-07-30T12:21:53.664Z,53.95
2022-07-30T12:29:12.571Z,54.87
2022-07-30T12:32:07.797Z,55.19
2022-07-30T12:34:36.593Z,55.45
2022-07-30T12:37:11.187Z,55.59
2022-07-30T12:39:40.415Z,55.91
2022-07-30T12:42:19.414Z,55.90
2022-07-30T12:44:49.660Z,56.17
2022-07-30T12:47:23.341Z,56.43
2022-07-30T12:49:53.421Z,56.58
2022-07-30T12:52:28.488Z,56.62
2022-07-30T12:55:00.445Z,56.64
2022-07-30T12:58:42.353Z,56.76
2022-07-30T13:01:45.324Z,57.10
2022-07-30T13:04:17.160Z,57.26
2022-07-30T13:07:03.242Z,57.45
2022-07-30T13:09:32.460Z,57.58
2022-07-30T13:12:01.556Z,57.71
2022-07-30T13:14:30.712Z,57.76
2022-07-30T13:17:00.734Z,57.93
2022-07-30T13:19:30.232Z,57.89
2022-07-30T13:21:59.226Z,58.01
2022-07-30T13:24:27.720Z,58.15
2022-07-30T13:26:57.111Z,58.25
2022-07-30T13:29:25.761Z,58.38
2022-07-30T13:31:54.153Z,58.75
2022-07-30T13:34:22.854Z,58.78
2022-07-30T13:36:51.766Z,58.80
2022-07-30T13:39:20.443Z,58.63
2022-07-30T13:41:49.075Z,58.97
2022-07-30T13:44:18.204Z,58.90
2022-07-30T13:46:46.778Z,58.98
2022-07-30T13:49:16.632Z,59.05
2022-07-30T13:51:45.341Z,59.19
2022-07-30T13:54:14.031Z,59.28
2022-07-30T13:56:43.497Z,59.69
2022-07-30T13:59:12.477Z,59.65
2022-07-30T14:01:42.334Z,60.01
2022-07-30T14:04:12.927Z,59.92
2022-07-30T14:06:41.744Z,60.11
2022-07-30T14:09:10.441Z,60.28
2022-07-30T14:11:39.681Z,60.31
2022-07-30T14:14:09.726Z,60.68
2022-07-30T14:16:46.031Z,60.69
2022-07-30T14:19:23.569Z,60.70
2022-07-30T14:21:55.376Z,60.87
2022-07-30T14:24:23.975Z,60.93
2022-07-30T14:27:09.960Z,60.94
2022-07-30T14:29:38.752Z,60.96
2022-07-30T14:32:07.791Z,60.98
2022-07-30T14:34:36.199Z,61.36
2022-07-30T14:37:05.757Z,61.28
2022-07-30T14:40:03.018Z,61.48
2022-07-30T14:42:31.854Z,61.38
2022-07-30T14:45:00.347Z,61.30
2022-07-30T14:47:28.820Z,61.52
2022-07-30T14:50:00.761Z,61.45
2022-07-30T14:52:29.563Z,61.62
2022-07-30T14:55:03.696Z,61.67
2022-07-30T14:57:32.758Z,61.68
2022-07-30T15:00:01.324Z,61.85
2022-07-30T15:02:29.952Z,61.81
2022-07-30T15:04:59.635Z,62.05
2022-07-30T15:07:32.560Z,61.98
2022-07-30T15:10:02.119Z,62.20
2022-07-30T15:12:30.612Z,62.27
2022-07-30T15:15:02.884Z,62.29
2022-07-30T15:17:32.795Z,62.45
2022-07-30T15:20:01.570Z,62.36
2022-07-30T15:22:30.135Z,62.51
2022-07-30T15:24:58.765Z,62.64
2022-07-30T15:27:34.035Z,62.60
2022-07-30T15:30:05.167Z,62.71
2022-07-30T15:32:33.751Z,62.63
2022-07-30T15:35:02.662Z,62.53
2022-07-30T15:37:31.657Z,62.48
2022-07-30T15:40:00.713Z,62.76
2022-07-30T15:42:31.267Z,62.73
2022-07-30T15:45:19.114Z,62.67
2022-07-30T15:47:52.459Z,62.71
2022-07-30T15:50:21.546Z,62.82
2022-07-30T15:52:50.536Z,62.78
2022-07-30T15:55:20.019Z,62.69
2022-07-30T15:57:49.492Z,62.66
2022-07-30T16:00:18.612Z,62.61
2022-07-30T16:02:47.264Z,62.78
2022-07-30T16:05:27.698Z,62.73
2022-07-30T16:08:20.401Z,62.74
2022-07-30T16:10:49.047Z,62.83
2022-07-30T16:13:18.242Z,62.86
2022-07-30T16:15:47.452Z,62.79
2022-07-30T16:18:16.148Z,62.72
2022-07-30T16:20:44.734Z,62.63
2022-07-30T16:23:15.999Z,62.60
2022-07-30T16:25:49.025Z,62.58
2022-07-30T16:28:25.752Z,62.53
2022-07-30T16:30:56.965Z,62.65
2022-07-30T16:33:25.614Z,62.26
2022-07-30T16:35:54.156Z,62.38
2022-07-30T16:38:24.149Z,62.52
2022-07-30T16:40:52.637Z,62.58
2022-07-30T16:43:22.034Z,62.45
2022-07-30T16:45:50.871Z,62.54
2022-07-30T16:48:19.474Z,62.37
2022-07-30T16:50:48.260Z,62.46
2022-07-30T16:53:16.996Z,62.33
2022-07-30T16:56:02.682Z,62.16
2022-07-30T16:58:59.355Z,62.24
2022-07-30T17:01:36.055Z,62.36
2022-07-30T17:04:06.128Z,62.43
2022-07-30T17:06:35.794Z,62.29
2022-07-30T17:09:09.119Z,62.39
2022-07-30T17:11:47.143Z,62.10
2022-07-30T17:14:24.326Z,62.28
2022-07-30T17:16:52.749Z,62.25
2022-07-30T17:19:22.601Z,62.27
2022-07-30T17:21:51.200Z,62.21
2022-07-30T17:24:20.635Z,62.26
2022-07-30T17:26:49.125Z,62.12
2022-07-30T17:29:17.816Z,62.10
2022-07-30T17:31:47.441Z,62.33
2022-07-30T17:34:21.182Z,62.50
2022-07-30T17:36:54.693Z,62.49
2022-07-30T17:40:26.501Z,62.44
2022-07-30T17:42:15.437Z,62.60
2022-07-30T17:44:44.280Z,62.58
2022-07-30T17:47:17.171Z,62.58
2022-07-30T17:49:47.216Z,62.66
2022-07-30T17:52:15.591Z,62.59
2022-07-30T17:54:44.073Z,62.57
2022-07-30T17:57:17.903Z,62.58
2022-07-30T17:59:47.453Z,62.71
2022-07-30T18:02:17.556Z,62.68
2022-07-30T18:04:56.163Z,62.63
2022-07-30T18:07:25.689Z,62.70
2022-07-30T18:09:54.624Z,62.87
2022-07-30T18:12:23.360Z,62.96
2022-07-30T18:14:52.313Z,62.90
2022-07-30T18:17:20.782Z,63.03
2022-07-30T18:19:49.837Z,63.22
2022-07-30T18:22:29.335Z,63.44
2022-07-30T18:25:00.111Z,63.53
2022-07-30T18:27:29.368Z,63.57
2022-07-30T18:29:59.015Z,63.72
2022-07-30T18:32:27.980Z,63.87
2022-07-30T18:34:56.464Z,63.87
2022-07-30T18:37:25.348Z,63.87
2022-07-30T18:40:12.813Z,63.97
2022-07-30T18:42:41.514Z,64.15
2022-07-30T18:45:13.353Z,64.24
2022-07-30T18:47:48.248Z,64.42
2022-07-30T18:50:38.108Z,64.48
2022-07-30T18:53:15.226Z,64.65
2022-07-30T18:55:44.934Z,64.79
2022-07-30T18:58:15.248Z,64.75
2022-07-30T19:00:43.970Z,64.89
2022-07-30T19:03:17.484Z,64.91
2022-07-30T19:05:49.875Z,65.11
2022-07-30T19:08:18.875Z,65.18
2022-07-30T19:10:48.017Z,65.15
2022-07-30T19:13:19.105Z,65.18
2022-07-30T19:15:47.985Z,65.17
2022-07-30T19:18:16.919Z,65.10
2022-07-30T19:20:46.440Z,65.08
2022-07-30T19:23:16.424Z,65.15
2022-07-30T19:25:45.662Z,65.05
2022-07-30T19:28:16.619Z,65.17
2022-07-30T19:30:45.141Z,65.14
2022-07-30T19:33:15.776Z,65.14
2022-07-30T19:35:45.256Z,65.34
2022-07-30T19:41:02.812Z,65.20
2022-07-30T19:43:33.646Z,65.19
2022-07-30T19:46:02.192Z,65.28
2022-07-30T19:48:32.437Z,65.26
2022-07-30T19:51:01.538Z,65.28
2022-07-30T19:53:31.188Z,65.33
2022-07-30T19:56:02.348Z,65.11
2022-07-30T19:58:32.358Z,65.13
2022-07-30T20:01:01.499Z,65.06
2022-07-30T20:03:31.903Z,65.21
2022-07-30T20:06:01.541Z,65.17
2022-07-30T20:08:29.979Z,65.05
2022-07-30T20:10:58.703Z,65.19
2022-07-30T20:13:44.914Z,65.16
2022-07-30T20:16:16.310Z,65.40
2022-07-30T20:18:46.216Z,65.41
2022-07-30T20:21:16.341Z,65.54
2022-07-30T20:23:45.469Z,65.56
2022-07-30T20:26:15.403Z,65.50
2022-07-30T20:28:47.405Z,65.57
2022-07-30T20:31:21.587Z,65.47
2022-07-30T20:33:50.813Z,65.54
2022-07-30T20:36:21.681Z,65.40
2022-07-30T20:38:50.657Z,65.31
2022-07-30T20:41:19.731Z,65.46
2022-07-30T20:43:52.507Z,65.65
2022-07-30T20:46:23.881Z,65.53
2022-07-30T20:48:53.250Z,65.42
2022-07-30T20:51:21.853Z,65.48
2022-07-30T20:54:02.296Z,65.51
2022-07-30T20:56:31.497Z,65.61
2022-07-30T20:58:59.974Z,65.57
2022-07-30T21:01:30.766Z,65.53
2022-07-30T21:03:59.441Z,65.55
2022-07-30T21:06:28.075Z,65.63
2022-07-30T21:08:56.702Z,65.66
2022-07-30T21:11:25.985Z,65.71
2022-07-30T21:13:55.495Z,65.69
2022-07-30T21:16:26.749Z,65.56
2022-07-30T21:18:59.561Z,65.65
2022-07-30T21:21:41.517Z,65.86
2022-07-30T21:24:14.806Z,66.12
2022-07-30T21:26:43.973Z,66.39
2022-07-30T21:29:13.516Z,66.46
2022-07-30T21:32:01.446Z,66.52
2022-07-30T21:34:40.443Z,66.55
2022-07-30T21:37:15.516Z,66.74
2022-07-30T21:39:44.529Z,66.82
2022-07-30T21:42:13.780Z,66.93
2022-07-30T21:44:42.228Z,66.98
2022-07-30T21:47:10.854Z,67.01
2022-07-30T21:49:40.248Z,67.16
2022-07-30T21:52:11.648Z,67.22
2022-07-30T21:54:48.016Z,67.35
2022-07-30T21:57:23.073Z,67.37
2022-07-30T21:59:52.066Z,67.48
2022-07-30T22:02:21.776Z,67.55
2022-07-30T22:04:50.691Z,67.58
2022-07-30T22:07:19.171Z,67.69
2022-07-30T22:09:50.565Z,67.87
2022-07-30T22:12:19.343Z,67.94
2022-07-30T22:14:49.734Z,68.04
2022-07-30T22:17:23.602Z,68.00
2022-07-30T22:20:11.465Z,68.08
2022-07-30T22:22:40.892Z,68.15
2022-07-30T22:25:10.951Z,68.27
2022-07-30T22:27:56.728Z,68.30
2022-07-30T22:30:27.553Z,68.38
2022-07-30T22:33:06.280Z,68.44
2022-07-30T22:35:35.580Z,68.57
2022-07-30T22:38:05.284Z,68.60
2022-07-30T22:40:34.468Z,68.61
2022-07-30T22:43:07.580Z,68.62
2022-07-30T22:45:47.689Z,68.73
2022-07-30T22:48:19.663Z,68.72
2022-07-30T22:50:52.030Z,68.77
2022-07-30T22:54:11.360Z,68.91
2022-07-30T22:56:15.529Z,68.87
2022-07-30T22:58:44.740Z,68.87
2022-07-30T23:01:17.474Z,68.90
2022-07-30T23:03:46.063Z,68.96
2022-07-30T23:06:16.513Z,68.98
2022-07-30T23:08:44.896Z,68.97
2022-07-30T23:11:13.315Z,69.06
2022-07-30T23:12:14.684Z,65.24
2022-07-30T23:13:43.217Z,69.10
2022-07-30T23:16:11.627Z,69.11
2022-07-30T23:18:40.086Z,69.10
2022-07-30T23:21:09.431Z,69.09
2022-07-30T23:23:38.079Z,69.18
2022-07-30T23:26:07.927Z,69.18
2022-07-30T23:28:36.742Z,69.20
2022-07-30T23:31:05.278Z,69.14
2022-07-30T23:33:34.317Z,69.28
2022-07-30T23:36:05.966Z,69.36
2022-07-30T23:38:34.666Z,69.40
2022-07-30T23:41:04.903Z,69.40
2022-07-30T23:43:34.179Z,69.52
2022-07-30T23:46:03.327Z,69.51
2022-07-30T23:48:32.609Z,69.50
2022-07-30T23:51:01.504Z,69.57
2022-07-30T23:53:29.877Z,69.57
2022-07-30T23:55:58.295Z,69.59
2022-07-30T23:58:26.718Z,69.68
